Marble Falls' Hourly Summary for Monday, July 9, 2018
Hour Temp
(f)
RH
(%)
Solar Rad.
(MJ/m2)
Rainfall
(in)
Wind
(mph)
7/9/2018 12:00 AM 77 87 0 0 0.64
7/9/2018 1:00 AM 76 90 0 0 1.43
7/9/2018 2:00 AM 76 91 0 0 1.43
7/9/2018 3:00 AM 74 94 0 0 0.55
7/9/2018 4:00 AM 74 97 0 0 0.54
7/9/2018 5:00 AM 73 98 0 0 0.17
7/9/2018 6:00 AM 73 99 0 0 0.52
7/9/2018 7:00 AM 73 99 0.11 0 1.6
7/9/2018 8:00 AM 75 96 0.14 0.02 3.32
7/9/2018 9:00 AM 75 97 0.14 0.03 3.32
7/9/2018 10:00 AM 73 100 0.6 0.01 2.56
7/9/2018 11:00 AM 75 100 1.76 0 0.43
7/9/2018 12:00 PM 78 98 2.93 0 1.97
7/9/2018 1:00 PM 82 75 2.93 0 1.97
7/9/2018 2:00 PM 82 66 1.66 0.03 3.59
7/9/2018 3:00 PM 83 65 1.47 0 6.26
7/9/2018 4:00 PM 83 67 1.47 0 7.03
7/9/2018 5:00 PM 82 67 1.12 0 7.03
7/9/2018 6:00 PM 82 66 0.78 0 6.08
7/9/2018 7:00 PM 82 68 0.68 0 6.08
7/9/2018 8:00 PM 81 71 0.24 0 3.37
7/9/2018 9:00 PM 79 79 0.04 0 3.37
7/9/2018 10:00 PM 77 85 0 0 2.34
7/9/2018 11:00 PM 76 89 0 0 1.41
Data Summary 77 85 16.07 0.09 2.79